Time;durP1;ratioP1;P1;durP2;ratioP2;P2;SDS_P1;SDS_P2;PMS_P1;PMS_P2;Temp;Humidity;BMP_temperature;BMP_pressure;BME280_temperature;BME280_humidity;BME280_pressure;Samples;Min_cycle;Max_cycle;Signal;HPM_P1;HPM_P2
2021/12/14 00:02:23;;;;;;;23.15;12.10;;;;;;;6.31;100.00;99080.72;4908664;28;20112;-55
2021/12/14 00:04:48;;;;;;;28.35;15.07;;;;;;;6.30;100.00;99076.38;4908230;29;20023;-55
2021/12/14 00:07:16;;;;;;;25.70;14.38;;;;;;;6.39;100.00;99079.78;4912801;29;20032;-55
2021/12/14 00:09:42;;;;;;;22.25;12.32;;;;;;;6.14;100.00;99082.56;4907598;29;20115;-55
2021/12/14 00:12:26;;;;;;;20.95;11.63;;;;;;;6.28;100.00;99070.34;4906824;29;20047;-56
2021/12/14 00:15:04;;;;;;;23.55;13.98;;;;;;;6.21;100.00;99078.19;4909045;29;20039;-55
2021/12/14 00:17:52;;;;;;;22.30;12.43;;;;;;;6.24;100.00;99073.84;4907481;29;20040;-55
2021/12/14 00:20:31;;;;;;;23.75;10.90;;;;;;;6.40;100.00;99073.75;4909423;29;20051;-55
2021/12/14 00:25:33;;;;;;;20.83;11.07;;;;;;;6.23;100.00;99068.66;4907593;29;20040;-55
2021/12/14 00:28:02;;;;;;;21.25;11.60;;;;;;;6.09;100.00;99071.34;4909281;29;20520;-55
2021/12/14 00:30:28;;;;;;;24.88;10.63;;;;;;;5.99;100.00;99073.09;4907167;29;20051;-55
2021/12/14 00:32:54;;;;;;;18.15;9.68;;;;;;;6.17;100.00;99077.34;4909324;29;20039;-55
2021/12/14 00:35:20;;;;;;;20.83;10.60;;;;;;;5.88;100.00;99067.97;4905726;28;20032;-55
2021/12/14 00:37:50;;;;;;;17.73;10.20;;;;;;;5.89;100.00;99074.00;4907676;29;20099;-56
2021/12/14 00:40:23;;;;;;;20.42;10.68;;;;;;;6.04;100.00;99075.69;4906416;28;20572;-55
2021/12/14 00:42:50;;;;;;;20.55;9.73;;;;;;;6.02;100.00;99077.44;4909646;29;20035;-54
2021/12/14 00:45:17;;;;;;;21.00;10.50;;;;;;;6.10;100.00;99076.53;4909006;28;20035;-56
2021/12/14 00:47:43;;;;;;;18.88;10.38;;;;;;;6.24;100.00;99076.44;4907513;29;20135;-54
2021/12/14 00:50:10;;;;;;;17.58;9.45;;;;;;;6.25;100.00;99085.94;4907771;29;20994;-55
2021/12/14 00:52:35;;;;;;;26.55;13.48;;;;;;;6.15;100.00;99079.06;4914518;29;20032;-54
2021/12/14 00:55:05;;;;;;;18.85;9.23;;;;;;;6.32;100.00;99071.19;4907189;29;20403;-55
2021/12/14 00:57:31;;;;;;;21.13;9.95;;;;;;;6.22;100.00;99075.59;4908183;28;20087;-55
2021/12/14 00:59:56;;;;;;;20.25;10.57;;;;;;;6.03;100.00;99074.84;4907359;29;20032;-55
2021/12/14 01:02:25;;;;;;;21.92;11.70;;;;;;;6.08;100.00;99072.22;4908766;29;20039;-56
2021/12/14 01:04:54;;;;;;;14.98;8.10;;;;;;;6.02;100.00;99077.44;4908841;29;20087;-55
2021/12/14 01:07:23;;;;;;;16.90;8.77;;;;;;;5.86;100.00;99082.63;4907562;29;20670;-55
2021/12/14 01:09:56;;;;;;;15.38;8.57;;;;;;;6.12;100.00;99079.09;4909240;29;20490;-57
2021/12/14 01:15:31;;;;;;;18.00;9.40;;;;;;;6.12;100.00;99076.50;4907772;29;20107;-54
2021/12/14 01:18:28;;;;;;;16.23;8.90;;;;;;;6.26;100.00;99079.00;4908587;29;20738;-56
2021/12/14 01:21:00;;;;;;;17.35;8.93;;;;;;;6.21;100.00;99071.25;4907917;29;20036;-55
2021/12/14 01:23:31;;;;;;;17.80;8.88;;;;;;;6.25;100.00;99069.50;4908828;29;20031;-55
2021/12/14 01:26:06;;;;;;;18.38;9.85;;;;;;;6.22;100.00;99067.81;4907909;29;20134;-55
2021/12/14 01:28:32;;;;;;;16.20;8.65;;;;;;;6.36;100.00;99065.13;4910161;29;20154;-55
2021/12/14 01:31:15;;;;;;;16.63;9.32;;;;;;;6.35;100.00;99071.19;4905960;29;20044;-55
2021/12/14 01:33:45;;;;;;;18.63;9.55;;;;;;;6.21;100.00;99073.84;4911030;29;20098;-55
2021/12/14 01:36:25;;;;;;;17.73;9.32;;;;;;;6.44;100.00;99078.88;4905159;29;20044;-55
2021/12/14 01:42:05;;;;;;;17.58;9.32;;;;;;;6.48;100.00;99071.97;4902738;29;20051;-55
2021/12/14 01:44:35;;;;;;;18.33;9.30;;;;;;;6.29;100.00;99066.06;4909038;29;20028;-54
2021/12/14 01:47:07;;;;;;;18.25;9.23;;;;;;;6.42;100.00;99066.81;4906318;28;20039;-55
2021/12/14 01:49:33;;;;;;;19.70;9.30;;;;;;;6.29;100.00;99074.69;4906349;29;20130;-55
2021/12/14 01:52:04;;;;;;;16.08;9.15;;;;;;;5.95;100.00;99072.25;4904804;29;20207;-55
2021/12/14 01:54:35;;;;;;;20.90;10.00;;;;;;;6.31;100.00;99064.31;4908855;29;20028;-55
2021/12/14 01:57:07;;;;;;;24.17;10.30;;;;;;;6.36;100.00;99068.59;4905575;29;20040;-55
2021/12/14 01:59:36;;;;;;;;;;;;;;;6.37;100.00;99062.50;4907527;29;20718;-56
2021/12/14 02:02:20;;;;;;;19.73;9.52;;;;;;;5.98;100.00;99071.41;4905546;28;19919;-55
2021/12/14 02:04:49;;;;;;;17.02;9.02;;;;;;;6.17;100.00;99066.97;4923281;28;20117;-55
2021/12/14 02:07:16;;;;;;;18.92;9.70;;;;;;;6.31;100.00;99078.13;4907723;29;20704;-55
2021/12/14 02:09:45;;;;;;;21.95;10.00;;;;;;;6.05;100.00;99073.09;4911026;29;20044;-55
2021/12/14 02:12:15;;;;;;;19.35;10.13;;;;;;;6.06;100.00;99063.59;4912556;29;20047;-55
2021/12/14 02:14:40;;;;;;;22.30;10.30;;;;;;;6.37;100.00;99069.44;4910364;29;20126;-54
2021/12/14 02:17:08;;;;;;;19.13;9.68;;;;;;;6.07;100.00;99070.50;4911689;29;20122;-55
2021/12/14 02:19:35;;;;;;;17.77;9.73;;;;;;;6.25;100.00;99075.56;4912211;29;20027;-54
2021/12/14 02:22:01;;;;;;;20.73;9.98;;;;;;;6.00;100.00;99064.50;4910788;28;20048;-55
2021/12/14 02:24:29;;;;;;;20.30;9.95;;;;;;;6.23;100.00;99066.06;4912267;29;20038;-55
2021/12/14 02:26:55;;;;;;;21.33;10.25;;;;;;;6.11;100.00;99064.44;4910341;28;20047;-57
2021/12/14 02:29:32;;;;;;;25.30;10.95;;;;;;;6.17;100.00;99067.81;4910660;29;20031;-55
2021/12/14 02:32:19;;;;;;;22.50;10.55;;;;;;;6.23;100.00;99063.47;4909876;29;20039;-54
2021/12/14 02:38:11;;;;;;;23.48;9.88;;;;;;;6.07;100.00;99060.13;4908563;29;20050;-55
2021/12/14 02:40:53;;;;;;;22.65;9.43;;;;;;;6.05;100.00;99064.47;4911804;28;20047;-55
2021/12/14 02:43:33;;;;;;;22.95;10.07;;;;;;;5.93;100.00;99061.03;4908477;29;20031;-55
2021/12/14 02:46:09;;;;;;;21.58;10.52;;;;;;;5.79;100.00;99049.91;4909923;28;20035;-54
2021/12/14 02:48:35;;;;;;;20.98;9.82;;;;;;;5.96;100.00;99042.91;4910415;29;20635;-55
2021/12/14 02:51:11;;;;;;;19.85;9.68;;;;;;;6.05;100.00;99046.34;4910969;29;20044;-54
2021/12/14 02:53:37;;;;;;;21.58;9.75;;;;;;;6.24;100.00;99047.94;4909441;29;20024;-57
2021/12/14 02:56:08;;;;;;;21.42;10.73;;;;;;;6.21;100.00;99063.47;4910676;28;20075;-55
2021/12/14 02:58:33;;;;;;;18.48;8.93;;;;;;;6.57;100.00;99057.19;4910609;29;20050;-55
2021/12/14 03:01:00;;;;;;;24.23;9.80;;;;;;;6.02;100.00;99051.53;4910807;28;20059;-55
2021/12/14 03:03:26;;;;;;;18.88;9.40;;;;;;;5.87;100.00;99055.88;4910941;29;20050;-54
2021/12/14 03:05:51;;;;;;;22.33;9.90;;;;;;;6.11;100.00;99052.31;4912396;29;20219;-54
2021/12/14 03:08:27;;;;;;;20.10;9.55;;;;;;;6.19;100.00;99054.88;4909768;29;20031;-56
2021/12/14 03:11:11;;;;;;;17.13;7.72;;;;;;;6.07;100.00;99044.59;4909822;29;20499;-55
2021/12/14 03:13:46;;;;;;;21.58;9.75;;;;;;;6.11;100.00;99041.13;4907817;29;20076;-55
2021/12/14 03:16:19;;;;;;;16.65;7.88;;;;;;;6.28;100.00;99025.44;4908129;29;20142;-55
2021/12/14 03:18:49;;;;;;;17.58;7.88;;;;;;;6.26;100.00;99027.19;4909431;29;20027;-55
2021/12/14 03:21:37;;;;;;;15.93;8.18;;;;;;;6.08;100.00;99036.78;4910007;29;20568;-55
2021/12/14 03:24:07;;;;;;;21.65;9.70;;;;;;;6.13;100.00;99039.38;4907968;29;20111;-55
2021/12/14 03:26:34;;;;;;;16.90;8.52;;;;;;;6.22;100.00;99026.34;4910177;28;20060;-55
2021/12/14 03:29:10;;;;;;;17.55;8.63;;;;;;;6.12;100.00;99020.38;4908292;29;20050;-55
2021/12/14 03:31:42;;;;;;;18.67;9.02;;;;;;;5.92;100.00;99038.59;4906645;29;20122;-55
2021/12/14 03:34:25;;;;;;;15.90;6.60;;;;;;;6.31;100.00;99041.84;4910680;29;20036;-55
2021/12/14 03:36:54;;;;;;;26.73;7.43;;;;;;;6.37;100.00;99048.69;4908275;28;20055;-55
2021/12/14 03:39:27;;;;;;;17.25;7.22;;;;;;;6.26;100.00;99046.19;4909756;29;20031;-55
2021/12/14 03:41:59;;;;;;;9.98;4.65;;;;;;;6.65;100.00;99053.66;4908354;28;20051;-57
2021/12/14 03:44:29;;;;;;;17.88;7.22;;;;;;;6.23;100.00;99061.78;4907768;29;20099;-56
2021/12/14 03:47:03;;;;;;;45.38;8.75;;;;;;;6.45;100.00;99056.41;4907096;29;20036;-55
2021/12/14 03:49:33;;;;;;;20.48;7.57;;;;;;;6.45;100.00;99048.63;4909365;29;20844;-54
2021/12/14 03:51:58;;;;;;;20.50;6.43;;;;;;;6.23;100.00;99035.88;4908432;28;20048;-56
2021/12/14 03:54:24;;;;;;;15.25;6.43;;;;;;;6.42;100.00;99043.50;4906560;29;20055;-55
2021/12/14 03:56:51;;;;;;;12.70;5.53;;;;;;;6.29;100.00;99045.31;4907706;28;20044;-54
2021/12/14 03:59:17;;;;;;;116.28;10.63;;;;;;;6.56;100.00;99052.00;4906217;29;20031;-55
2021/12/14 04:01:45;;;;;;;30.55;6.90;;;;;;;6.19;100.00;99044.50;4909465;29;20050;-54
2021/12/14 04:04:27;;;;;;;14.65;5.00;;;;;;;5.86;100.00;99041.22;4908880;29;20039;-55
2021/12/14 04:06:56;;;;;;;12.30;5.38;;;;;;;6.27;100.00;99041.88;4906124;29;20162;-55
2021/12/14 04:09:24;;;;;;;10.18;5.60;;;;;;;5.97;100.00;99034.28;4906906;29;20032;-54
2021/12/14 04:11:50;;;;;;;11.73;5.95;;;;;;;5.93;100.00;99036.88;4907717;29;20044;-54
2021/12/14 04:14:16;;;;;;;12.63;5.50;;;;;;;6.26;100.00;99037.56;4908110;29;20039;-55
2021/12/14 04:16:46;;;;;;;12.07;5.88;;;;;;;5.96;100.00;99036.88;4913007;28;20110;-55
2021/12/14 04:19:15;;;;;;;11.98;5.90;;;;;;;5.86;100.00;99046.38;4906842;29;20027;-55
2021/12/14 04:21:43;;;;;;;10.82;5.57;;;;;;;6.34;100.00;99033.16;4908393;28;20046;-56
2021/12/14 04:24:11;;;;;;;16.58;6.78;;;;;;;6.14;100.00;99031.59;4907686;29;20622;-54
2021/12/14 04:26:44;;;;;;;25.25;4.90;;;;;;;7.11;100.00;99038.56;4907962;29;20040;-54
2021/12/14 04:29:12;;;;;;;74.38;9.88;;;;;;;6.51;100.00;99033.06;4906807;29;20687;-55
2021/12/14 04:31:38;;;;;;;125.35;12.52;;;;;;;7.30;100.00;99044.41;4908877;28;20044;-55
2021/12/14 04:34:03;;;;;;;95.60;11.45;;;;;;;6.64;100.00;99036.41;4905678;29;20034;-54
2021/12/14 04:36:30;;;;;;;64.90;9.27;;;;;;;6.83;100.00;99031.91;4909102;29;20036;-54
2021/12/14 04:39:02;;;;;;;23.77;7.30;;;;;;;5.98;100.00;99032.56;4907585;29;20090;-55
2021/12/14 04:52:31;;;;;;;14.82;6.15;;;;;;;5.91;100.00;99008.38;4908618;28;20485;-56
2021/12/14 04:55:02;;;;;;;11.05;4.57;;;;;;;6.14;100.00;99010.88;4903927;29;20715;-54
2021/12/14 04:57:39;;;;;;;18.23;7.30;;;;;;;6.09;100.00;99014.38;4907377;29;20114;-55
2021/12/14 05:00:20;;;;;;;16.67;8.05;;;;;;;5.84;100.00;99009.28;4907424;29;20119;-55
2021/12/14 05:02:47;;;;;;;27.33;7.50;;;;;;;6.02;100.00;99012.69;4909659;29;20051;-55
2021/12/14 05:05:27;;;;;;;17.27;6.82;;;;;;;6.54;100.00;99007.09;4907063;29;20067;-56
2021/12/14 05:10:36;;;;;;;15.07;7.05;;;;;;;6.35;100.00;98994.28;4907002;29;20079;-55
2021/12/14 05:13:03;;;;;;;16.85;6.70;;;;;;;6.33;100.00;98998.63;4907605;29;20123;-55
2021/12/14 05:15:28;;;;;;;17.60;6.57;;;;;;;6.24;100.00;99000.44;4907980;28;20043;-55
2021/12/14 05:17:54;;;;;;;9.35;4.20;;;;;;;7.07;100.00;98994.50;4907649;29;20035;-55
2021/12/14 05:20:19;;;;;;;12.18;6.28;;;;;;;6.56;100.00;98995.84;4906496;29;20079;-55
2021/12/14 05:22:46;;;;;;;17.48;6.15;;;;;;;6.90;100.00;99002.44;4905896;29;20024;-56
2021/12/14 05:25:17;;;;;;;14.45;6.45;;;;;;;6.59;100.00;98997.56;4905175;29;20047;-55
2021/12/14 05:27:51;;;;;;;14.17;6.63;;;;;;;6.38;100.00;98985.66;4907892;29;20523;-55
2021/12/14 05:30:37;;;;;;;16.75;7.22;;;;;;;6.46;100.00;98983.00;4906715;29;20643;-56
2021/12/14 05:33:07;;;;;;;17.63;7.93;;;;;;;6.11;100.00;98984.13;4907900;29;20299;-55
2021/12/14 05:35:33;;;;;;;14.93;7.55;;;;;;;5.90;100.00;98980.78;4906935;29;20047;-55
2021/12/14 05:38:00;;;;;;;16.77;7.03;;;;;;;5.73;100.00;98985.19;4915390;29;20031;-55
2021/12/14 05:43:21;;;;;;;12.80;6.45;;;;;;;5.78;100.00;98986.88;4913594;29;20031;-55
2021/12/14 05:45:53;;;;;;;13.82;7.15;;;;;;;5.71;100.00;98979.16;4910914;29;20122;-56
2021/12/14 05:48:25;;;;;;;13.65;6.80;;;;;;;5.31;100.00;98974.19;4913890;29;20066;-57
2021/12/14 05:50:54;;;;;;;12.80;6.60;;;;;;;5.57;100.00;98993.06;4912564;28;20054;-57
2021/12/14 05:53:32;;;;;;;13.10;6.70;;;;;;;5.90;100.00;98991.13;4911685;29;20747;-56
2021/12/14 05:56:01;;;;;;;16.52;6.60;;;;;;;5.73;100.00;98998.13;4910259;29;20040;-55
2021/12/14 05:58:27;;;;;;;11.38;5.93;;;;;;;5.83;100.00;98994.63;4911883;29;20023;-56
2021/12/14 06:00:59;;;;;;;14.95;6.65;;;;;;;5.92;100.00;98994.59;4913282;28;20042;-56
2021/12/14 06:03:28;;;;;;;10.60;5.37;;;;;;;6.19;100.00;98997.88;4910227;29;20110;-57
2021/12/14 06:05:57;;;;;;;12.55;5.57;;;;;;;6.10;100.00;98979.81;4913059;29;20039;-56
2021/12/14 06:08:26;;;;;;;12.30;4.88;;;;;;;6.61;100.00;98990.63;4912685;28;20028;-55
2021/12/14 06:10:53;;;;;;;11.60;5.32;;;;;;;6.03;100.00;98970.34;4914431;29;20095;-56
2021/12/14 06:13:19;;;;;;;9.98;5.00;;;;;;;5.62;100.00;98984.41;4913672;29;20139;-57
2021/12/14 06:15:46;;;;;;;8.48;4.07;;;;;;;6.09;100.00;98975.50;4915824;29;20044;-55
2021/12/14 06:18:12;;;;;;;9.30;5.35;;;;;;;5.97;100.00;98971.25;4913843;29;20103;-57
2021/12/14 06:20:43;;;;;;;9.93;4.97;;;;;;;6.04;100.00;98977.25;4911963;29;21258;-56
2021/12/14 06:23:09;;;;;;;9.48;4.30;;;;;;;6.35;100.00;98975.28;4921916;29;20019;-56
2021/12/14 06:25:34;;;;;;;13.00;6.10;;;;;;;6.14;100.00;98994.47;4912774;28;20059;-56
2021/12/14 06:28:02;;;;;;;14.18;5.75;;;;;;;7.14;100.00;99007.38;4912941;29;20039;-56
2021/12/14 06:30:34;;;;;;;13.13;5.75;;;;;;;6.62;100.00;99007.91;4912360;29;20052;-56
2021/12/14 06:33:05;;;;;;;10.23;5.53;;;;;;;6.69;100.00;99006.97;4914223;29;20023;-56
2021/12/14 06:35:37;;;;;;;10.60;5.82;;;;;;;6.21;100.00;99009.06;4913114;28;20048;-56
2021/12/14 06:41:08;;;;;;;6.60;4.00;;;;;;;6.79;100.00;98999.97;4911926;28;20130;-57
2021/12/14 06:43:47;;;;;;;14.95;4.15;;;;;;;7.77;100.00;99016.13;4912707;29;20067;-58
2021/12/14 06:46:18;;;;;;;4.85;2.58;;;;;;;10.32;100.00;99007.16;4912475;28;20032;-56
2021/12/14 06:48:56;;;;;;;4.93;2.83;;;;;;;10.25;100.00;98995.13;4913210;29;20032;-56
2021/12/14 06:51:26;;;;;;;7.55;3.50;;;;;;;9.33;100.00;98987.56;4911389;28;20298;-56
2021/12/14 06:53:55;;;;;;;10.02;3.60;;;;;;;8.86;100.00;98987.59;4914768;29;20598;-56
2021/12/14 06:56:25;;;;;;;8.15;2.90;;;;;;;11.53;100.00;98984.81;4911048;29;20039;-57
2021/12/14 06:58:58;;;;;;;5.53;3.35;;;;;;;8.82;100.00;98970.31;4910848;29;20031;-57
2021/12/14 07:01:39;;;;;;;6.65;3.90;;;;;;;6.68;100.00;98981.91;4913457;28;20097;-56
2021/12/14 07:04:08;;;;;;;7.47;4.72;;;;;;;4.71;100.00;98972.66;4910671;29;20019;-56
2021/12/14 07:06:36;;;;;;;12.18;5.78;;;;;;;5.30;100.00;98970.75;4910405;28;20048;-56
2021/12/14 07:09:48;;;;;;;11.65;5.43;;;;;;;6.54;100.00;98984.66;4910862;29;20122;-56
2021/12/14 07:12:23;;;;;;;12.17;5.73;;;;;;;6.54;100.00;98981.16;4910278;28;20123;-56
2021/12/14 07:14:48;;;;;;;11.02;5.22;;;;;;;5.90;100.00;98983.38;4911728;29;20525;-56
2021/12/14 07:17:29;;;;;;;10.30;5.88;;;;;;;5.86;100.00;98989.41;4910378;28;20040;-56
2021/12/14 07:19:59;;;;;;;11.18;6.00;;;;;;;5.43;100.00;98989.66;4911552;29;20020;-58
2021/12/14 07:22:31;;;;;;;9.63;4.32;;;;;;;5.69;100.00;98999.88;4909645;28;20043;-57
2021/12/14 07:25:12;;;;;;;10.95;5.45;;;;;;;5.94;100.00;99000.59;4918814;29;20082;-56
2021/12/14 07:27:42;;;;;;;12.63;5.63;;;;;;;6.19;100.00;99008.22;4910093;29;20050;-56
2021/12/14 07:30:29;;;;;;;13.18;5.47;;;;;;;5.83;100.00;99014.50;4909945;29;20028;-56
2021/12/14 07:33:11;;;;;;;12.13;6.30;;;;;;;5.78;100.00;99022.28;4924778;28;20023;-56
2021/12/14 07:35:50;;;;;;;11.40;6.33;;;;;;;5.33;100.00;99038.00;4912228;29;20040;-55
2021/12/14 07:38:16;;;;;;;10.18;5.25;;;;;;;5.57;100.00;99042.22;4910676;29;20260;-55
2021/12/14 07:40:46;;;;;;;11.68;5.95;;;;;;;5.83;100.00;99024.84;4910448;29;20032;-55
2021/12/14 07:43:19;;;;;;;15.50;6.10;;;;;;;5.94;100.00;99023.91;4917389;29;20043;-56
2021/12/14 07:45:50;;;;;;;14.38;6.45;;;;;;;5.81;100.00;99027.44;4911135;29;20048;-56
2021/12/14 07:48:16;;;;;;;12.25;5.78;;;;;;;5.70;100.00;99016.28;4911623;29;20032;-56
2021/12/14 07:50:54;;;;;;;12.38;5.68;;;;;;;5.90;100.00;99006.69;4911414;28;20058;-57
2021/12/14 07:53:50;;;;;;;11.98;6.15;;;;;;;5.80;100.00;99005.00;4908732;29;20040;-57
2021/12/14 07:56:29;;;;;;;14.02;6.22;;;;;;;6.01;100.00;99001.47;4910874;28;20074;-57
2021/12/14 07:58:57;;;;;;;11.98;6.50;;;;;;;5.91;100.00;99010.97;4912666;29;20031;-55
2021/12/14 08:01:24;;;;;;;17.75;6.82;;;;;;;5.68;100.00;99012.81;4909541;28;20035;-56
2021/12/14 08:04:01;;;;;;;13.18;6.82;;;;;;;5.45;100.00;99012.94;4910882;29;20950;-56
2021/12/14 08:06:41;;;;;;;13.02;6.22;;;;;;;5.58;100.00;99020.63;4911853;28;20036;-56
2021/12/14 08:09:07;;;;;;;12.05;4.80;;;;;;;6.04;100.00;99013.53;4910524;29;20035;-55
2021/12/14 08:14:15;;;;;;;11.10;6.07;;;;;;;6.04;100.00;99024.75;4910331;29;20923;-55
2021/12/14 08:16:49;;;;;;;13.25;5.82;;;;;;;5.30;100.00;99025.06;4907688;29;20040;-56
2021/12/14 08:19:30;;;;;;;14.05;5.80;;;;;;;5.55;100.00;99010.31;4912381;29;20032;-55
2021/12/14 08:21:56;;;;;;;25.70;6.35;;;;;;;5.62;100.00;99016.31;4909400;29;20047;-55
2021/12/14 08:24:22;;;;;;;10.48;6.55;;;;;;;5.83;100.00;99030.03;4909859;29;20031;-54
2021/12/14 08:26:53;;;;;;;13.73;6.43;;;;;;;5.72;100.00;99028.34;4910066;29;20457;-56
2021/12/14 08:29:25;;;;;;;10.25;5.82;;;;;;;5.50;100.00;99022.41;4916349;29;20426;-55
2021/12/14 08:31:54;;;;;;;13.18;6.43;;;;;;;5.89;100.00;99041.19;4911521;28;20048;-55
2021/12/14 08:34:33;;;;;;;15.40;6.40;;;;;;;5.56;100.00;99034.47;4908981;29;20064;-55
2021/12/14 08:37:12;;;;;;;13.95;6.65;;;;;;;5.81;100.00;99027.44;4911625;28;20062;-54
2021/12/14 08:39:43;;;;;;;11.63;6.30;;;;;;;5.73;100.00;99029.19;4910657;29;20024;-54
2021/12/14 08:42:38;;;;;;;13.38;6.40;;;;;;;6.12;100.00;99035.03;4907806;29;20115;-55
2021/12/14 08:45:27;;;;;;;12.68;6.30;;;;;;;6.09;100.00;99040.28;4909241;29;20028;-54
2021/12/14 08:48:05;;;;;;;13.45;6.63;;;;;;;6.06;100.00;99032.50;4911690;29;20364;-56
2021/12/14 08:50:34;;;;;;;13.48;6.47;;;;;;;6.28;100.00;99028.88;4911224;29;20044;-55
2021/12/14 08:53:00;;;;;;;13.45;6.50;;;;;;;6.37;100.00;99023.63;4911150;29;20043;-55
2021/12/14 08:55:32;;;;;;;12.43;6.65;;;;;;;6.39;100.00;99027.97;4906224;28;20094;-56
2021/12/14 08:57:59;;;;;;;12.88;6.38;;;;;;;5.97;100.00;99012.69;4917191;29;20035;-57
2021/12/14 09:00:32;;;;;;;16.23;7.13;;;;;;;6.08;100.00;99010.88;4908725;29;20035;-55
2021/12/14 09:03:01;;;;;;;16.88;7.18;;;;;;;6.30;100.00;99016.78;4911631;29;20020;-54
2021/12/14 09:05:41;;;;;;;16.83;6.35;;;;;;;6.52;100.00;99019.22;4908748;28;20038;-57
2021/12/14 09:08:08;;;;;;;12.32;6.13;;;;;;;6.28;100.00;99013.34;4908355;29;20374;-54
2021/12/14 09:10:37;;;;;;;14.02;6.78;;;;;;;6.61;100.00;99006.16;4909269;28;20092;-54
2021/12/14 09:13:06;;;;;;;11.77;5.82;;;;;;;6.70;100.00;99013.00;4911056;29;20032;-55
2021/12/14 09:15:38;;;;;;;16.23;5.88;;;;;;;6.72;100.00;99021.63;4908544;29;20550;-55
2021/12/14 09:18:04;;;;;;;11.18;6.25;;;;;;;6.79;100.00;99010.34;4907178;29;20023;-54
2021/12/14 09:20:35;;;;;;;11.98;6.20;;;;;;;6.74;100.00;99017.28;4908813;28;20036;-55
2021/12/14 09:23:08;;;;;;;13.95;6.20;;;;;;;6.70;100.00;99019.03;4907612;29;20432;-57
2021/12/14 09:25:34;;;;;;;10.35;5.55;;;;;;;6.52;100.00;99026.97;4910311;29;20067;-55
2021/12/14 09:28:04;;;;;;;9.35;4.95;;;;;;;6.83;100.00;99031.91;4912738;29;20064;-56
2021/12/14 09:30:33;;;;;;;10.75;5.43;;;;;;;6.86;100.00;99030.16;4908990;29;20484;-56
2021/12/14 09:32:59;;;;;;;10.20;5.30;;;;;;;6.52;100.00;99037.34;4907128;29;20031;-54
2021/12/14 09:35:27;;;;;;;10.30;6.25;;;;;;;6.54;100.00;99040.78;4917876;28;20039;-56
2021/12/14 09:37:55;;;;;;;11.00;6.10;;;;;;;6.55;100.00;99037.34;4909626;29;20023;-58
2021/12/14 09:40:25;;;;;;;10.63;5.85;;;;;;;6.97;100.00;99034.38;4908127;28;20037;-55
2021/12/14 09:42:52;;;;;;;10.95;5.20;;;;;;;6.72;100.00;99027.66;4908876;29;20549;-57
2021/12/14 09:45:22;;;;;;;11.23;5.78;;;;;;;6.42;100.00;99028.81;4908857;29;20043;-56
2021/12/14 09:47:48;;;;;;;13.43;6.15;;;;;;;6.50;100.00;99036.50;4909623;29;20027;-56
2021/12/14 09:50:21;;;;;;;13.13;6.22;;;;;;;6.19;100.00;99018.59;4909192;29;20039;-56
2021/12/14 09:52:48;;;;;;;;;;;;;;;6.22;100.00;98997.84;4910447;29;20032;-57
2021/12/14 09:55:18;;;;;;;13.63;6.68;;;;;;;6.30;100.00;99000.38;4915233;29;19915;-56
2021/12/14 09:57:50;;;;;;;12.23;6.32;;;;;;;6.57;100.00;99004.50;4916107;29;20033;-57
2021/12/14 10:00:36;;;;;;;11.93;6.03;;;;;;;6.10;100.00;99009.19;4908081;28;20102;-56
2021/12/14 10:03:03;;;;;;;13.57;6.88;;;;;;;6.40;100.00;99003.78;4910369;29;20024;-56
2021/12/14 10:05:44;;;;;;;10.85;6.05;;;;;;;6.47;100.00;99000.25;4907919;28;20028;-57
2021/12/14 10:08:17;;;;;;;13.48;6.60;;;;;;;6.30;100.00;98996.06;4909079;29;20052;-56
2021/12/14 10:10:46;;;;;;;14.30;6.90;;;;;;;6.35;100.00;98999.47;4908829;29;20051;-56
2021/12/14 10:13:11;;;;;;;12.48;7.05;;;;;;;6.05;100.00;99004.91;4909658;29;20055;-56
2021/12/14 10:15:48;;;;;;;12.02;6.15;;;;;;;6.67;100.00;99008.72;4907911;28;20044;-56
2021/12/14 10:18:39;;;;;;;12.07;6.57;;;;;;;6.48;100.00;99010.59;4909417;29;20028;-56
2021/12/14 10:21:07;;;;;;;12.60;5.88;;;;;;;6.68;100.00;99015.63;4906411;29;20044;-57
2021/12/14 10:23:35;;;;;;;14.13;6.55;;;;;;;6.51;100.00;99014.91;4906659;29;20031;-56
2021/12/14 10:26:01;;;;;;;10.90;5.68;;;;;;;6.64;100.00;99021.72;4916646;29;20426;-56
2021/12/14 10:28:28;;;;;;;11.45;6.38;;;;;;;6.72;100.00;99012.13;4911320;29;20838;-57
2021/12/14 10:30:58;;;;;;;13.50;5.70;;;;;;;6.63;100.00;99014.78;4912899;28;20855;-55
2021/12/14 10:33:27;;;;;;;12.68;6.15;;;;;;;6.55;100.00;99011.41;4909531;29;20158;-55
2021/12/14 10:35:58;;;;;;;13.65;6.50;;;;;;;6.52;100.00;99014.88;4910874;28;20268;-54
2021/12/14 10:38:31;;;;;;;12.75;6.20;;;;;;;6.77;100.00;99026.78;4913637;29;20047;-55
2021/12/14 10:44:04;;;;;;;13.35;6.22;;;;;;;6.64;100.00;99026.03;4914161;29;20795;-55
2021/12/14 10:46:35;;;;;;;11.77;6.10;;;;;;;6.60;100.00;99027.81;4911594;28;20190;-55
2021/12/14 10:49:02;;;;;;;13.02;6.63;;;;;;;6.51;100.00;99026.13;4912284;29;20467;-56
2021/12/14 10:51:33;;;;;;;11.65;6.15;;;;;;;6.86;100.00;99021.53;4908148;28;20083;-57
2021/12/14 10:54:00;;;;;;;11.68;5.68;;;;;;;6.71;100.00;99018.19;4910129;29;20521;-55
2021/12/14 10:56:32;;;;;;;14.90;6.55;;;;;;;6.91;100.00;99017.13;4913124;28;20143;-55
2021/12/14 10:59:02;;;;;;;12.73;6.00;;;;;;;6.72;100.00;99019.88;4913043;29;20020;-55
2021/12/14 11:01:32;;;;;;;11.73;5.63;;;;;;;7.29;100.00;99026.25;4911595;29;20036;-56
2021/12/14 11:04:27;;;;;;;13.60;6.28;;;;;;;6.87;100.00;99031.84;4911960;29;20034;-56
2021/12/14 11:06:57;;;;;;;14.38;6.25;;;;;;;7.05;100.00;99028.22;4912133;28;20068;-55
2021/12/14 11:09:41;;;;;;;12.32;6.13;;;;;;;6.67;100.00;99024.28;4911476;29;20020;-55
2021/12/14 11:12:29;;;;;;;12.30;6.22;;;;;;;6.98;100.00;99029.16;4907886;29;20032;-56
2021/12/14 11:15:03;;;;;;;9.85;5.88;;;;;;;6.95;100.00;99024.88;4912168;29;20111;-57
2021/12/14 11:20:17;;;;;;;15.02;7.07;;;;;;;7.05;100.00;99024.78;4910055;29;20038;-55
2021/12/14 11:23:00;;;;;;;13.23;6.55;;;;;;;7.29;100.00;99016.72;4911086;29;20072;-55
2021/12/14 11:25:29;;;;;;;15.90;6.10;;;;;;;6.67;100.00;99008.72;4912591;28;20035;-56
2021/12/14 11:28:06;;;;;;;15.60;6.97;;;;;;;6.50;100.00;98997.63;4911560;29;20503;-56
2021/12/14 11:30:45;;;;;;;13.00;6.80;;;;;;;6.89;100.00;98999.00;4910499;28;20089;-55
2021/12/14 11:33:19;;;;;;;18.40;7.85;;;;;;;6.71;100.00;98994.84;4909818;29;20630;-56
2021/12/14 11:35:52;;;;;;;16.35;7.40;;;;;;;6.88;100.00;98999.88;4912699;29;20048;-55
2021/12/14 11:38:32;;;;;;;15.77;7.40;;;;;;;6.65;100.00;98992.31;4910401;29;20039;-55
2021/12/14 11:41:18;;;;;;;13.80;6.70;;;;;;;6.79;100.00;98991.34;4910838;28;20679;-55
2021/12/14 11:43:50;;;;;;;15.38;7.43;;;;;;;6.91;100.00;98983.41;4913301;29;20039;-55
2021/12/14 11:46:15;;;;;;;20.33;8.93;;;;;;;6.60;100.00;98980.25;4912110;28;20036;-57
2021/12/14 11:48:41;;;;;;;21.48;8.63;;;;;;;6.89;100.00;98991.22;4910872;29;20019;-56
2021/12/14 11:51:08;;;;;;;23.70;8.20;;;;;;;6.54;100.00;98981.16;4908305;29;20078;-55
2021/12/14 11:53:34;;;;;;;25.30;8.73;;;;;;;6.64;100.00;98975.03;4912085;29;20023;-55
2021/12/14 11:56:09;;;;;;;28.45;9.45;;;;;;;6.91;100.00;98980.81;4908234;29;20079;-58
2021/12/14 11:58:44;;;;;;;17.85;6.68;;;;;;;7.20;100.00;98982.25;4908665;29;20036;-55
2021/12/14 12:01:16;;;;;;;20.42;7.60;;;;;;;6.87;100.00;98976.53;4909447;29;20040;-56
2021/12/14 12:03:48;;;;;;;16.33;7.65;;;;;;;6.98;100.00;98979.88;4910513;29;20024;-56
2021/12/14 12:06:25;;;;;;;18.30;7.45;;;;;;;6.84;100.00;98993.00;4911704;28;20452;-57
2021/12/14 12:11:41;;;;;;;18.63;7.20;;;;;;;6.99;100.00;99002.34;4910427;28;20051;-58
2021/12/14 12:14:28;;;;;;;19.80;7.38;;;;;;;6.91;100.00;98993.78;4911666;29;20031;-56
2021/12/14 12:17:09;;;;;;;17.27;7.78;;;;;;;6.76;100.00;98989.59;4908702;29;20055;-58
2021/12/14 12:19:35;;;;;;;19.73;8.02;;;;;;;6.83;100.00;98980.03;4910528;29;20495;-56
2021/12/14 12:22:08;;;;;;;16.52;7.32;;;;;;;6.90;100.00;98986.91;4909323;29;20779;-55
2021/12/14 12:24:50;;;;;;;18.42;7.40;;;;;;;6.99;100.00;98979.00;4915748;29;20557;-55
2021/12/14 12:27:28;;;;;;;17.00;7.55;;;;;;;6.79;100.00;98974.03;4910552;29;20040;-55
2021/12/14 12:30:39;;;;;;;19.48;7.30;;;;;;;6.84;100.00;98981.78;4910445;29;20032;-56